International Falls, Minnesota
Current Conditions -  °F | °C
As of 5:55 AM on Monday 20 Oct 2014 (Local Time) from KINL Reporting Station
Overcast Overcast  
Wind Chill:   Ceiling: 1500
Heat Index:   Visibility: 10mi
Dew Point:   Wind: 8mph
Humidity: 96%   Direction: 330°NNW
Pressure: 29.93"   Gusts: NA
Location:  48.6°N, 93.4°W
Report Text: KINL 201055Z AUTO 33007KT 10SM BKN015 OVC029 05/04 A2993 RMK AO2 SLP143 T00500044
Loading
Personal Weather Stations






























Interactive Weather Map
Tropical Storm Tracking
New forecast layout! Learn more

10-Day Weather Forecast

Advertisements
Track Severe Weather on mobile